createdAt,value
2022-10-16T00:01:23.274Z,97862.88
2022-10-16T00:03:50.269Z,97942.66
2022-10-16T00:06:18.958Z,97940.25
2022-10-16T00:08:46.244Z,97942.44
2022-10-16T00:11:26.486Z,97923.28
2022-10-16T00:13:57.938Z,97947.53
2022-10-16T00:16:26.601Z,97897.28
2022-10-16T00:18:53.425Z,97938.03
2022-10-16T00:21:24.741Z,97945.09
2022-10-16T00:24:00.703Z,97879.53
2022-10-16T00:26:28.841Z,97951.19
2022-10-16T00:28:55.588Z,97826.28
2022-10-16T00:31:24.132Z,97921.53
2022-10-16T00:33:51.738Z,97954.97
2022-10-16T00:36:21.039Z,97952.81
2022-10-16T00:38:47.883Z,97946.84
2022-10-16T00:41:16.683Z,97952.81
2022-10-16T00:43:47.813Z,97952.78
2022-10-16T00:46:22.327Z,97949.50
2022-10-16T00:49:16.653Z,97959.44
2022-10-16T00:51:47.392Z,97936.66
2022-10-16T00:54:30.510Z,97939.56
2022-10-16T00:57:00.838Z,97944.72
2022-10-16T00:59:31.350Z,97943.91
2022-10-16T01:01:59.408Z,97928.50
2022-10-16T01:04:27.294Z,97936.66
2022-10-16T01:07:04.702Z,97922.06
2022-10-16T01:09:56.322Z,97938.00
2022-10-16T01:12:38.821Z,97940.41
2022-10-16T01:15:09.465Z,97951.94
2022-10-16T01:17:43.630Z,97940.84
2022-10-16T01:20:33.009Z,97971.00
2022-10-16T01:23:37.778Z,97970.97
2022-10-16T01:26:20.312Z,97946.66
2022-10-16T01:28:52.740Z,97958.81
2022-10-16T01:31:23.416Z,97916.94
2022-10-16T01:34:17.497Z,97962.78
2022-10-16T01:36:54.213Z,97944.69
2022-10-16T01:39:25.998Z,97962.69
2022-10-16T01:42:00.001Z,97932.94
2022-10-16T01:44:32.729Z,97961.44
2022-10-16T01:47:01.078Z,97967.06
2022-10-16T01:49:33.507Z,97974.53
2022-10-16T01:52:06.352Z,97916.56
2022-10-16T01:54:35.915Z,97955.50
2022-10-16T01:57:04.933Z,97889.94
2022-10-16T01:59:35.715Z,97965.22
2022-10-16T02:02:09.116Z,97961.91
2022-10-16T02:04:44.916Z,97934.22
2022-10-16T02:07:12.434Z,97923.31
2022-10-16T02:09:39.844Z,97953.81
2022-10-16T02:12:13.149Z,97966.56
2022-10-16T02:14:40.654Z,97959.56
2022-10-16T02:17:16.516Z,97955.72
2022-10-16T02:19:44.642Z,97950.59
2022-10-16T02:22:37.160Z,97898.56
2022-10-16T02:25:09.364Z,97968.09
2022-10-16T02:27:43.069Z,97940.66
2022-10-16T02:30:20.387Z,97901.69
2022-10-16T02:32:49.792Z,97949.78
2022-10-16T02:35:19.198Z,97985.38
2022-10-16T02:37:47.390Z,97944.34
2022-10-16T02:40:18.302Z,97917.38
2022-10-16T02:42:54.267Z,97973.03
2022-10-16T02:45:22.033Z,97980.56
2022-10-16T02:47:49.833Z,97956.91
2022-10-16T02:50:17.919Z,97979.59
2022-10-16T02:52:44.396Z,97920.97
2022-10-16T02:55:11.950Z,97958.19
2022-10-16T02:57:39.513Z,97906.09
2022-10-16T03:00:10.735Z,97922.28
2022-10-16T03:02:37.295Z,97977.78
2022-10-16T03:05:04.425Z,97961.56
2022-10-16T03:07:31.010Z,97967.47
2022-10-16T03:09:57.806Z,97991.75
2022-10-16T03:12:24.272Z,97872.44
2022-10-16T03:14:50.767Z,97951.81
2022-10-16T03:17:18.120Z,97948.69
2022-10-16T03:19:45.132Z,97948.38
2022-10-16T03:22:12.278Z,97986.34
2022-10-16T03:24:39.101Z,97958.28
2022-10-16T03:27:05.604Z,98004.16
2022-10-16T03:29:33.389Z,97977.16
2022-10-16T03:32:00.645Z,98002.84
2022-10-16T03:34:27.687Z,97932.38
2022-10-16T03:36:54.572Z,97936.97
2022-10-16T03:39:21.066Z,98010.63
2022-10-16T03:41:47.708Z,97962.09
2022-10-16T03:44:14.462Z,98000.22
2022-10-16T03:46:42.289Z,97981.75
2022-10-16T03:49:09.947Z,97938.59
2022-10-16T03:51:36.837Z,98000.44
2022-10-16T03:54:03.621Z,97994.50
2022-10-16T03:56:30.263Z,97971.00
2022-10-16T03:58:56.723Z,97922.19
2022-10-16T04:01:23.286Z,97997.63
2022-10-16T04:03:50.089Z,97988.16
2022-10-16T04:06:16.780Z,97959.63
2022-10-16T04:08:44.671Z,97996.34
2022-10-16T04:11:11.455Z,97981.84
2022-10-16T04:13:38.324Z,97862.00
2022-10-16T04:16:04.993Z,97876.88
2022-10-16T04:18:33.130Z,97983.22
2022-10-16T04:21:05.159Z,98018.09
2022-10-16T04:23:31.948Z,97893.88
2022-10-16T04:26:00.456Z,97960.50
2022-10-16T04:28:27.850Z,97983.00
2022-10-16T04:30:54.830Z,97956.31
2022-10-16T04:33:21.365Z,98016.94
2022-10-16T04:35:48.561Z,97973.59
2022-10-16T04:38:16.106Z,97972.56
2022-10-16T04:40:43.938Z,97963.16
2022-10-16T04:43:10.671Z,97991.91
2022-10-16T04:45:37.215Z,98008.56
2022-10-16T04:48:04.261Z,97996.91
2022-10-16T04:50:30.808Z,97998.00
2022-10-16T04:53:08.046Z,97975.78
2022-10-16T04:55:34.614Z,97972.59
2022-10-16T04:58:01.237Z,97989.56
2022-10-16T05:00:28.174Z,97973.31
2022-10-16T05:02:55.827Z,97978.22
2022-10-16T05:05:22.667Z,98000.28
2022-10-16T05:07:50.582Z,97982.03
2022-10-16T05:10:17.386Z,97924.34
2022-10-16T05:12:43.909Z,97965.66
2022-10-16T05:15:10.998Z,97998.66
2022-10-16T05:17:42.422Z,97986.16
2022-10-16T05:20:12.159Z,98005.88
2022-10-16T05:22:39.522Z,98025.53
2022-10-16T05:25:07.545Z,97999.63
2022-10-16T05:27:34.241Z,97928.88
2022-10-16T05:30:01.027Z,97995.69
2022-10-16T05:32:29.369Z,97972.16
2022-10-16T05:34:56.148Z,97992.69
2022-10-16T05:37:22.819Z,97908.72
2022-10-16T05:39:49.690Z,98018.63
2022-10-16T05:42:16.227Z,98016.19
2022-10-16T05:44:43.022Z,98024.78
2022-10-16T05:47:11.899Z,98042.56
2022-10-16T05:49:41.264Z,97994.38
2022-10-16T05:52:11.031Z,98049.09
2022-10-16T05:54:37.838Z,97879.34
2022-10-16T05:57:06.639Z,98040.00
2022-10-16T05:59:33.688Z,98017.31
2022-10-16T06:02:01.438Z,98043.75
2022-10-16T06:04:27.930Z,98038.06
2022-10-16T06:07:01.493Z,98036.75
2022-10-16T06:09:28.194Z,97986.47
2022-10-16T06:11:54.694Z,98030.78
2022-10-16T06:14:21.325Z,97991.06
2022-10-16T06:16:48.084Z,98030.97
2022-10-16T06:19:14.722Z,98022.88
2022-10-16T06:21:41.580Z,97916.53
2022-10-16T06:24:08.334Z,98052.00
2022-10-16T06:26:35.042Z,98060.25
2022-10-16T06:29:02.083Z,98041.78
2022-10-16T06:31:32.007Z,98043.13
2022-10-16T06:33:59.316Z,98051.03
2022-10-16T06:36:27.222Z,98002.78
2022-10-16T06:38:54.176Z,98043.94
2022-10-16T06:41:22.978Z,98069.63
2022-10-16T06:43:49.993Z,98072.13
2022-10-16T06:46:20.073Z,98090.22
2022-10-16T06:48:46.960Z,98088.41
2022-10-16T06:51:16.600Z,98091.94
2022-10-16T06:54:03.484Z,98086.56
2022-10-16T06:56:32.272Z,98085.25
2022-10-16T06:59:00.570Z,98076.31
2022-10-16T07:01:27.564Z,98096.53
2022-10-16T07:03:56.172Z,98012.25
2022-10-16T07:06:24.938Z,98066.31
2022-10-16T07:08:52.240Z,98110.91
2022-10-16T07:11:23.362Z,98074.69
2022-10-16T07:13:56.170Z,98002.13
2022-10-16T07:16:26.005Z,98118.88
2022-10-16T07:18:59.300Z,98071.78
2022-10-16T07:21:28.289Z,98109.19
2022-10-16T07:23:57.323Z,98105.94
2022-10-16T07:26:25.379Z,98123.03
2022-10-16T07:28:52.278Z,98125.44
2022-10-16T07:31:21.223Z,98142.09
2022-10-16T07:33:49.237Z,98116.25
2022-10-16T07:36:16.934Z,98077.78
2022-10-16T07:38:44.018Z,98144.91
2022-10-16T07:41:16.280Z,98155.63
2022-10-16T07:43:50.132Z,98127.47
2022-10-16T07:46:19.048Z,98168.81
2022-10-16T07:48:48.230Z,98137.28
2022-10-16T07:51:17.160Z,98158.88
2022-10-16T07:53:43.873Z,98048.00
2022-10-16T07:56:10.950Z,98060.66
2022-10-16T07:58:40.488Z,98143.41
2022-10-16T08:01:09.964Z,98182.84
2022-10-16T08:03:37.390Z,98218.69
2022-10-16T08:06:05.458Z,98223.91
2022-10-16T08:08:32.104Z,98240.47
2022-10-16T08:10:58.681Z,98218.63
2022-10-16T08:13:25.598Z,98177.47
2022-10-16T08:15:52.201Z,98221.31
2022-10-16T08:18:19.539Z,98205.28
2022-10-16T08:20:46.182Z,98242.84
2022-10-16T08:23:14.660Z,98198.78
2022-10-16T08:25:42.297Z,98248.25
2022-10-16T08:28:11.709Z,98241.28
2022-10-16T08:30:38.557Z,98224.25
2022-10-16T08:33:05.755Z,98233.50
2022-10-16T08:35:32.265Z,98230.91
2022-10-16T08:37:58.930Z,98226.72
2022-10-16T08:40:33.392Z,98241.81
2022-10-16T08:43:13.096Z,98244.59
2022-10-16T08:46:03.202Z,98247.38
2022-10-16T08:48:40.010Z,98223.09
2022-10-16T08:51:09.044Z,98230.09
2022-10-16T08:53:50.045Z,98237.25
2022-10-16T08:56:19.542Z,98241.31
2022-10-16T08:58:48.824Z,98262.72
2022-10-16T09:01:20.314Z,98235.00
2022-10-16T09:04:06.550Z,98253.06
2022-10-16T09:07:11.527Z,98249.84
2022-10-16T09:09:50.738Z,98265.59
2022-10-16T09:12:25.528Z,98257.56
2022-10-16T09:15:20.505Z,98264.94
2022-10-16T09:18:21.933Z,98258.81
2022-10-16T09:20:58.975Z,98273.75
2022-10-16T09:23:31.190Z,98271.16
2022-10-16T09:25:59.832Z,98207.53
2022-10-16T09:28:27.393Z,98278.59
2022-10-16T09:30:55.242Z,98248.34
2022-10-16T09:33:27.153Z,98285.09
2022-10-16T09:35:56.910Z,98282.94
2022-10-16T09:38:30.865Z,98288.34
2022-10-16T09:41:03.046Z,98266.75
2022-10-16T09:43:43.209Z,98278.38
2022-10-16T09:46:42.421Z,98295.09
2022-10-16T09:49:27.989Z,98292.72
2022-10-16T09:52:11.104Z,98276.75
2022-10-16T09:54:38.578Z,98276.50
2022-10-16T09:57:08.454Z,98236.00
2022-10-16T09:59:35.035Z,98280.53
2022-10-16T10:02:16.038Z,98294.31
2022-10-16T10:04:49.126Z,98179.38
2022-10-16T10:07:22.352Z,98258.38
2022-10-16T10:09:49.329Z,98229.28
2022-10-16T10:12:21.773Z,98295.06
2022-10-16T10:14:56.567Z,98289.34
2022-10-16T10:17:28.365Z,98307.97
2022-10-16T10:19:57.865Z,98226.25
2022-10-16T10:22:32.281Z,98310.88
2022-10-16T10:25:25.425Z,98303.78
2022-10-16T10:28:04.941Z,98286.53
2022-10-16T10:30:34.818Z,98308.50
2022-10-16T10:33:22.556Z,98275.00
2022-10-16T10:36:08.149Z,98311.19
2022-10-16T10:38:54.277Z,98288.97
2022-10-16T10:41:31.724Z,98293.25
2022-10-16T10:44:19.842Z,98308.31
2022-10-16T10:46:52.658Z,98296.72
2022-10-16T10:49:41.732Z,98308.53
2022-10-16T10:52:36.628Z,98314.78
2022-10-16T10:55:03.253Z,98318.25
2022-10-16T11:00:18.386Z,98258.22
2022-10-16T11:03:20.189Z,98322.97
2022-10-16T11:06:09.512Z,98289.63
2022-10-16T11:08:44.721Z,98297.16
2022-10-16T11:11:27.228Z,98316.66
2022-10-16T11:14:00.980Z,98316.13
2022-10-16T11:16:36.105Z,98314.56
2022-10-16T11:19:21.543Z,98323.47
2022-10-16T11:22:02.789Z,98277.88
2022-10-16T11:24:41.911Z,98322.06
2022-10-16T11:27:14.678Z,98288.94
2022-10-16T11:30:00.864Z,98219.88
2022-10-16T11:32:46.335Z,98274.13
2022-10-16T11:35:23.346Z,98250.38
2022-10-16T11:37:51.921Z,98290.31
2022-10-16T11:40:28.879Z,98302.66
2022-10-16T11:43:03.187Z,98293.75
2022-10-16T11:45:45.493Z,98302.13
2022-10-16T11:48:27.294Z,98304.00
2022-10-16T11:50:57.156Z,98280.59
2022-10-16T11:53:29.776Z,98292.97
2022-10-16T11:55:56.696Z,98246.59
2022-10-16T11:58:40.245Z,98261.66
2022-10-16T12:01:09.943Z,98291.81
2022-10-16T12:03:43.461Z,98290.78
2022-10-16T12:06:53.417Z,98288.88
2022-10-16T12:09:30.521Z,98291.00
2022-10-16T12:11:57.771Z,98279.97
2022-10-16T12:14:36.939Z,98287.41
2022-10-16T12:17:35.200Z,98288.47
2022-10-16T12:20:12.957Z,98281.84
2022-10-16T12:23:04.609Z,98272.94
2022-10-16T12:25:49.350Z,98235.19
2022-10-16T12:28:16.461Z,98276.88
2022-10-16T12:30:53.291Z,98264.38
2022-10-16T12:33:31.015Z,98268.72
2022-10-16T12:36:00.772Z,98248.78
2022-10-16T12:38:29.257Z,98261.63
2022-10-16T12:41:02.981Z,98245.00
2022-10-16T12:43:39.078Z,98222.91
2022-10-16T12:46:11.797Z,98266.84
2022-10-16T12:48:48.570Z,98250.97
2022-10-16T12:51:26.885Z,98261.25
2022-10-16T12:54:14.950Z,98272.53
2022-10-16T12:57:04.295Z,98275.38
2022-10-16T12:59:39.219Z,98283.44
2022-10-16T13:02:22.419Z,98247.38
2022-10-16T13:05:07.122Z,98280.00
2022-10-16T13:07:51.156Z,98184.09
2022-10-16T13:10:36.605Z,98263.53
2022-10-16T13:13:24.973Z,98201.84
2022-10-16T13:16:04.182Z,98271.91
2022-10-16T13:18:44.736Z,98279.19
2022-10-16T13:21:36.222Z,98274.41
2022-10-16T13:24:28.578Z,98274.47
2022-10-16T13:27:16.741Z,98270.13
2022-10-16T13:29:43.522Z,98251.34
2022-10-16T13:32:15.406Z,98286.44
2022-10-16T13:34:50.006Z,98244.41
2022-10-16T13:37:19.697Z,98282.13
2022-10-16T13:39:47.809Z,98220.38
2022-10-16T13:42:29.972Z,98254.94
2022-10-16T13:44:57.462Z,98247.13
2022-10-16T13:47:27.252Z,98279.16
2022-10-16T13:50:20.623Z,98287.00
2022-10-16T13:52:48.502Z,98285.44
2022-10-16T13:55:17.852Z,98248.19
2022-10-16T13:57:46.106Z,98247.38
2022-10-16T14:00:20.179Z,98288.66
2022-10-16T14:02:52.870Z,98293.00
2022-10-16T14:05:19.725Z,98243.88
2022-10-16T14:07:52.816Z,98292.47
2022-10-16T14:10:32.233Z,98294.09
2022-10-16T14:13:03.174Z,98224.00
2022-10-16T14:15:32.337Z,98298.97
2022-10-16T14:18:00.027Z,98288.19
2022-10-16T14:20:32.980Z,98306.53
2022-10-16T14:23:22.799Z,98251.03
2022-10-16T14:25:49.661Z,98211.88
2022-10-16T14:28:25.151Z,98226.69
2022-10-16T14:30:58.470Z,98234.53
2022-10-16T14:33:34.474Z,98227.25
2022-10-16T14:36:03.758Z,98309.28
2022-10-16T14:38:30.950Z,98245.28
2022-10-16T14:40:59.813Z,98312.53
2022-10-16T14:43:42.017Z,98294.72
2022-10-16T14:46:16.763Z,98300.06
2022-10-16T14:48:46.028Z,98235.88
2022-10-16T14:51:19.780Z,98310.63
2022-10-16T14:53:46.889Z,98279.81
2022-10-16T14:56:22.356Z,98310.38
2022-10-16T14:58:51.087Z,98291.47
2022-10-16T15:01:19.116Z,98320.66
2022-10-16T15:03:46.492Z,98314.69
2022-10-16T15:06:14.818Z,98314.72
2022-10-16T15:08:42.164Z,98321.22
2022-10-16T15:11:20.507Z,98322.25
2022-10-16T15:13:47.471Z,98269.94
2022-10-16T15:16:18.154Z,98222.50
2022-10-16T15:18:45.232Z,98291.56
2022-10-16T15:21:30.956Z,98320.72
2022-10-16T15:23:59.571Z,98317.22
2022-10-16T15:26:28.477Z,98303.69
2022-10-16T15:28:55.620Z,98314.75
2022-10-16T15:31:26.624Z,98296.94
2022-10-16T15:33:57.408Z,98310.44
2022-10-16T15:36:29.536Z,98315.84
2022-10-16T15:38:57.463Z,98311.50
2022-10-16T15:41:24.313Z,98275.38
2022-10-16T15:43:51.619Z,98151.88
2022-10-16T15:46:23.872Z,98155.09
2022-10-16T15:48:52.047Z,98123.78
2022-10-16T15:51:19.646Z,98054.25
2022-10-16T15:53:47.625Z,98090.34
2022-10-16T15:56:15.598Z,98320.22
2022-10-16T15:58:50.179Z,98306.19
2022-10-16T16:01:17.550Z,98298.66
2022-10-16T16:03:47.192Z,98300.00
2022-10-16T16:06:16.173Z,98306.97
2022-10-16T16:08:42.927Z,98280.28
2022-10-16T16:11:14.909Z,98277.03
2022-10-16T16:13:42.090Z,98268.13
2022-10-16T16:16:11.508Z,98313.50
2022-10-16T16:18:39.447Z,98316.41
2022-10-16T16:21:06.527Z,98292.66
2022-10-16T16:23:34.511Z,98251.31
2022-10-16T16:26:11.030Z,98258.53
2022-10-16T16:28:40.140Z,98313.91
2022-10-16T16:31:07.459Z,98329.84
2022-10-16T16:33:35.373Z,98319.31
2022-10-16T16:36:12.947Z,98326.34
2022-10-16T16:38:42.488Z,98323.34
2022-10-16T16:41:18.120Z,98320.66
2022-10-16T16:43:45.450Z,98319.03
2022-10-16T16:46:12.664Z,98314.66
2022-10-16T16:48:39.740Z,98301.84
2022-10-16T16:51:08.180Z,98312.84
2022-10-16T16:53:46.390Z,98277.94
2022-10-16T16:56:13.947Z,98331.69
2022-10-16T16:58:40.895Z,98309.50
2022-10-16T17:01:20.683Z,98324.59
2022-10-16T17:03:52.963Z,98275.56
2022-10-16T17:06:21.863Z,98333.69
2022-10-16T17:08:49.668Z,98338.50
2022-10-16T17:11:25.767Z,98319.94
2022-10-16T17:13:56.963Z,98344.22
2022-10-16T17:16:27.325Z,98348.28
2022-10-16T17:18:56.706Z,98344.78
2022-10-16T17:21:24.083Z,98336.91
2022-10-16T17:23:53.321Z,98358.31
2022-10-16T17:26:24.534Z,98342.81
2022-10-16T17:28:56.302Z,98291.56
2022-10-16T17:31:29.113Z,98364.56
2022-10-16T17:33:56.212Z,98365.97
2022-10-16T17:36:23.730Z,98322.38
2022-10-16T17:38:52.871Z,98372.38
2022-10-16T17:41:24.516Z,98382.63
2022-10-16T17:43:52.080Z,98386.34
2022-10-16T17:46:21.609Z,98383.34
2022-10-16T17:48:51.249Z,98391.88
2022-10-16T17:51:22.732Z,98320.44
2022-10-16T17:53:53.075Z,98386.22
2022-10-16T17:56:22.130Z,98396.59
2022-10-16T17:58:54.111Z,98386.97
2022-10-16T18:01:26.850Z,98398.38
2022-10-16T18:03:59.890Z,98249.78
2022-10-16T18:06:28.168Z,98154.16
2022-10-16T18:08:58.034Z,98235.00
2022-10-16T18:11:26.692Z,98174.72
2022-10-16T18:13:57.021Z,98396.16
2022-10-16T18:16:24.015Z,98407.06
2022-10-16T18:18:50.980Z,98412.19
2022-10-16T18:21:19.886Z,98419.22
2022-10-16T18:23:52.832Z,98416.25
2022-10-16T18:26:22.894Z,98426.75
2022-10-16T18:28:52.747Z,98426.78
2022-10-16T18:31:23.723Z,98398.31
2022-10-16T18:33:51.550Z,98399.91
2022-10-16T18:36:29.810Z,98404.00
2022-10-16T18:38:57.533Z,98408.22
2022-10-16T18:41:24.892Z,98380.53
2022-10-16T18:43:51.736Z,98361.16
2022-10-16T18:46:21.321Z,98431.50
2022-10-16T18:48:49.589Z,98440.84
2022-10-16T18:51:25.111Z,98416.53
2022-10-16T18:53:54.209Z,98413.59
2022-10-16T18:56:23.538Z,98434.66
2022-10-16T18:58:51.644Z,98424.25
2022-10-16T19:01:28.813Z,98448.38
2022-10-16T19:03:58.716Z,98437.50
2022-10-16T19:06:26.085Z,98441.22
2022-10-16T19:08:54.358Z,98364.25
2022-10-16T19:11:23.845Z,98418.69
2022-10-16T19:13:51.499Z,98452.25
2022-10-16T19:16:23.789Z,98442.88
2022-10-16T19:18:54.411Z,98448.03
2022-10-16T19:21:21.742Z,98459.19
2022-10-16T19:23:58.881Z,98449.13
2022-10-16T19:26:26.941Z,98463.44
2022-10-16T19:28:55.626Z,98460.28
2022-10-16T19:31:25.226Z,98404.66
2022-10-16T19:33:54.544Z,98424.16
2022-10-16T19:36:24.485Z,98458.56
2022-10-16T19:38:56.390Z,98442.47
2022-10-16T19:41:26.455Z,98466.88
2022-10-16T19:43:54.603Z,98463.56
2022-10-16T19:46:25.782Z,98463.63
2022-10-16T19:48:59.184Z,98453.56
2022-10-16T19:51:26.857Z,98468.91
2022-10-16T19:53:56.852Z,98458.44
2022-10-16T19:56:25.145Z,98481.44
2022-10-16T19:58:53.466Z,98486.00
2022-10-16T20:01:20.764Z,98445.41
2022-10-16T20:03:50.646Z,98448.25
2022-10-16T20:06:19.831Z,98427.94
2022-10-16T20:08:48.337Z,98481.69
2022-10-16T20:11:18.897Z,98476.31
2022-10-16T20:13:47.989Z,98464.41
2022-10-16T20:16:18.017Z,98443.22
2022-10-16T20:18:46.950Z,98487.69
2022-10-16T20:21:20.884Z,98426.09
2022-10-16T20:23:49.356Z,98486.56
2022-10-16T20:26:17.029Z,98426.28
2022-10-16T20:28:43.880Z,98444.66
2022-10-16T20:31:18.278Z,98434.69
2022-10-16T20:33:45.511Z,98499.97
2022-10-16T20:36:14.490Z,98502.41
2022-10-16T20:38:42.458Z,98448.94
2022-10-16T20:41:10.923Z,98514.50
2022-10-16T20:43:41.328Z,98454.75
2022-10-16T20:46:13.756Z,98511.75
2022-10-16T20:48:44.204Z,98509.47
2022-10-16T20:51:16.301Z,98506.72
2022-10-16T20:53:44.339Z,98479.97
2022-10-16T20:56:12.534Z,98475.44
2022-10-16T20:58:40.834Z,98430.19
2022-10-16T21:01:09.625Z,98511.56
2022-10-16T21:03:37.822Z,98502.91
2022-10-16T21:06:06.924Z,98512.56
2022-10-16T21:08:38.422Z,98448.59
2022-10-16T21:11:17.511Z,98508.88
2022-10-16T21:13:44.486Z,98498.63
2022-10-16T21:16:12.991Z,98512.09
2022-10-16T21:18:44.232Z,98404.50
2022-10-16T21:21:19.579Z,98519.41
2022-10-16T21:23:47.685Z,98450.59
2022-10-16T21:26:14.361Z,98468.28
2022-10-16T21:28:41.436Z,98477.91
2022-10-16T21:31:15.325Z,98513.19
2022-10-16T21:33:42.374Z,98526.22
2022-10-16T21:36:32.989Z,98513.44
2022-10-16T21:39:05.822Z,98535.19
2022-10-16T21:41:36.497Z,98530.19
2022-10-16T21:44:04.228Z,98530.03
2022-10-16T21:46:34.101Z,98519.22
2022-10-16T21:49:05.384Z,98534.66
2022-10-16T21:51:35.553Z,98531.88
2022-10-16T21:54:03.734Z,98534.09
2022-10-16T21:56:30.627Z,98534.72
2022-10-16T21:58:57.474Z,98535.81
2022-10-16T22:01:26.149Z,98491.09
2022-10-16T22:03:53.805Z,98504.00
2022-10-16T22:08:59.869Z,98482.13
2022-10-16T22:11:36.726Z,98544.66
2022-10-16T22:14:06.352Z,98521.16
2022-10-16T22:16:34.351Z,98497.16
2022-10-16T22:19:03.390Z,98537.13
2022-10-16T22:21:32.279Z,98532.94
2022-10-16T22:24:00.059Z,98536.31
2022-10-16T22:26:27.354Z,98551.00
2022-10-16T22:28:55.310Z,98522.22
2022-10-16T22:31:23.969Z,98503.47
2022-10-16T22:33:59.086Z,98549.72
2022-10-16T22:36:27.323Z,98544.94
2022-10-16T22:38:55.621Z,98483.56
2022-10-16T22:41:25.073Z,98542.59
2022-10-16T22:43:53.166Z,98496.81
2022-10-16T22:46:25.950Z,98565.19
2022-10-16T22:48:55.732Z,98557.63
2022-10-16T22:51:22.706Z,98503.72
2022-10-16T22:53:50.648Z,98546.66
2022-10-16T22:56:19.489Z,98508.59
2022-10-16T22:58:46.975Z,98527.78
2022-10-16T23:01:24.871Z,98544.81
2022-10-16T23:03:51.613Z,98515.81
2022-10-16T23:06:18.169Z,98478.28
2022-10-16T23:08:45.028Z,98429.88
2022-10-16T23:11:13.299Z,98564.63
2022-10-16T23:13:45.360Z,98563.22
2022-10-16T23:16:14.636Z,98557.16
2022-10-16T23:18:42.848Z,98574.50
2022-10-16T23:21:12.583Z,98562.28
2022-10-16T23:23:40.450Z,98567.41
2022-10-16T23:26:16.854Z,98574.94
2022-10-16T23:28:44.224Z,98573.28
2022-10-16T23:31:13.006Z,98568.56
2022-10-16T23:33:40.080Z,98581.88
2022-10-16T23:36:09.679Z,98585.97
2022-10-16T23:38:36.581Z,98575.25
2022-10-16T23:41:03.912Z,98574.69
2022-10-16T23:43:30.777Z,98583.78
2022-10-16T23:45:57.980Z,98549.88
2022-10-16T23:48:25.741Z,98534.34
2022-10-16T23:50:54.694Z,98482.66
2022-10-16T23:53:22.349Z,98600.81
2022-10-16T23:55:53.275Z,98577.59
2022-10-16T23:58:21.536Z,98564.84
